Time;durP1;ratioP1;P1;durP2;ratioP2;P2;SDS_P1;SDS_P2;PMS_P1;PMS_P2;Temp;Humidity;BMP_temperature;BMP_pressure;BME280_temperature;BME280_humidity;BME280_pressure;Samples;Min_cycle;Max_cycle;Signal;HPM_P1;HPM_P2
2022/11/06 00:00:08;;;;;;;1.88;1.58;;;19.60;63.30;;;;;;4972696;28;43610;-63
2022/11/06 00:02:36;;;;;;;1.35;1.25;;;19.60;63.30;;;;;;4969812;28;43836;-62
2022/11/06 00:07:50;;;;;;;1.70;1.60;;;19.60;63.20;;;;;;4977774;28;43479;-63
2022/11/06 00:10:18;;;;;;;1.88;1.60;;;19.60;63.20;;;;;;4979726;28;43630;-63
2022/11/06 00:12:47;;;;;;;1.63;1.38;;;19.60;63.30;;;;;;4975988;28;45114;-62
2022/11/06 00:15:14;;;;;;;1.55;1.45;;;19.50;63.20;;;;;;4974570;28;43815;-63
2022/11/06 00:17:42;;;;;;;1.65;1.50;;;19.60;63.30;;;;;;4972525;28;43448;-63
2022/11/06 00:20:09;;;;;;;1.70;1.60;;;19.60;63.30;;;;;;4975438;28;43645;-63
2022/11/06 00:22:37;;;;;;;1.52;1.38;;;19.60;63.30;;;;;;4974981;28;44685;-63
2022/11/06 00:25:06;;;;;;;2.10;1.70;;;19.60;63.40;;;;;;4974518;28;43745;-63
2022/11/06 00:27:36;;;;;;;1.95;1.40;;;19.50;63.30;;;;;;4972331;28;43329;-63
2022/11/06 00:30:07;;;;;;;3.22;1.60;;;19.60;63.30;;;;;;4974141;28;43588;-63
2022/11/06 00:32:34;;;;;;;;;;;19.50;63.30;;;;;;4982586;28;44665;-62
2022/11/06 00:35:02;;;;;;;1.60;1.50;;;19.50;63.30;;;;;;4973073;28;43877;-63
2022/11/06 00:37:29;;;;;;;2.08;1.60;;;19.50;63.40;;;;;;4971832;28;43464;-62
2022/11/06 00:39:58;;;;;;;1.92;1.75;;;19.50;63.40;;;;;;4970039;28;43630;-62
2022/11/06 00:42:25;;;;;;;1.50;1.30;;;19.50;63.30;;;;;;4975118;28;44995;-62
2022/11/06 00:44:53;;;;;;;2.05;1.60;;;19.50;63.40;;;;;;4973261;28;43939;-62
2022/11/06 00:47:20;;;;;;;1.88;1.42;;;19.50;63.30;;;;;;4972408;28;43474;-62
2022/11/06 00:49:48;;;;;;;1.60;1.40;;;19.50;63.40;;;;;;4969912;28;43563;-62
2022/11/06 00:52:15;;;;;;;2.08;1.50;;;19.50;63.40;;;;;;4975321;28;45034;-62
2022/11/06 00:54:43;;;;;;;1.50;1.40;;;19.40;63.30;;;;;;4973237;28;44185;-62
2022/11/06 00:57:11;;;;;;;1.60;1.50;;;19.50;63.40;;;;;;4971490;28;43403;-63
2022/11/06 00:59:38;;;;;;;2.10;1.50;;;19.40;63.40;;;;;;4975561;28;43424;-63
2022/11/06 01:02:06;;;;;;;1.83;1.40;;;19.40;63.40;;;;;;4975466;28;43728;-63
2022/11/06 01:04:33;;;;;;;1.70;1.60;;;19.50;63.40;;;;;;4971890;28;43393;-63
2022/11/06 01:07:01;;;;;;;1.77;1.40;;;19.40;63.40;;;;;;4972250;28;43423;-63
2022/11/06 01:09:28;;;;;;;1.65;1.55;;;19.40;63.40;;;;;;4969497;28;43436;-62
2022/11/06 01:11:58;;;;;;;2.17;1.58;;;19.40;63.40;;;;;;4980863;28;44004;-63
2022/11/06 01:14:40;;;;;;;1.60;1.50;;;19.40;63.40;;;;;;4983546;28;44012;-63
2022/11/06 01:17:08;;;;;;;2.38;2.03;;;19.40;63.40;;;;;;4978865;28;43443;-63
2022/11/06 01:19:35;;;;;;;1.67;1.58;;;19.40;63.40;;;;;;4978399;28;43469;-63
2022/11/06 01:22:03;;;;;;;1.55;1.30;;;19.40;63.40;;;;;;4977799;28;45025;-63
2022/11/06 01:24:30;;;;;;;1.98;1.42;;;19.40;63.40;;;;;;4974472;28;43458;-63
2022/11/06 01:26:58;;;;;;;1.88;1.48;;;19.40;63.50;;;;;;4977526;28;43438;-63
2022/11/06 01:29:45;;;;;;;1.48;1.30;;;19.40;63.50;;;;;;4977541;28;43539;-63
2022/11/06 01:32:13;;;;;;;1.33;1.23;;;19.30;63.40;;;;;;4973587;28;43952;-63
2022/11/06 01:34:40;;;;;;;1.50;1.40;;;19.40;63.40;;;;;;4979881;28;43488;-63
2022/11/06 01:37:08;;;;;;;1.58;1.45;;;19.40;63.40;;;;;;4978994;28;43447;-63
2022/11/06 01:39:40;;;;;;;1.58;1.48;;;19.30;63.40;;;;;;4977853;28;43450;-62
2022/11/06 01:42:11;;;;;;;1.63;1.38;;;19.30;63.40;;;;;;4978319;28;43953;-63
2022/11/06 01:44:41;;;;;;;1.40;1.30;;;19.30;63.40;;;;;;4977908;28;43701;-63
2022/11/06 01:47:25;;;;;;;1.80;1.55;;;19.30;63.40;;;;;;4984993;28;43401;-63
2022/11/06 01:49:55;;;;;;;1.85;1.42;;;19.30;63.40;;;;;;4975132;28;43451;-63
2022/11/06 01:52:26;;;;;;;1.95;1.60;;;19.30;63.40;;;;;;4975250;28;44046;-63
2022/11/06 01:54:57;;;;;;;1.87;1.30;;;19.30;63.50;;;;;;4983653;28;44339;-63
2022/11/06 01:57:25;;;;;;;1.48;1.38;;;19.30;63.50;;;;;;4974461;28;43400;-63
2022/11/06 01:59:54;;;;;;;1.75;1.58;;;19.30;64.10;;;;;;4976442;28;43522;-63
2022/11/06 02:02:22;;;;;;;1.50;1.40;;;19.30;63.50;;;;;;4976229;28;43806;-63
2022/11/06 02:04:50;;;;;;;1.60;1.50;;;19.30;63.50;;;;;;4977969;28;43432;-63
2022/11/06 02:07:19;;;;;;;1.60;1.50;;;19.30;63.60;;;;;;4976807;28;43411;-63
2022/11/06 02:09:46;;;;;;;1.70;1.52;;;19.30;63.50;;;;;;4974183;28;43518;-63
2022/11/06 02:12:45;;;;;;;2.28;1.63;;;19.30;63.60;;;;;;4976943;28;44057;-63
2022/11/06 02:15:28;;;;;;;1.80;1.70;;;19.20;63.50;;;;;;4974029;28;43884;-63
2022/11/06 02:18:20;;;;;;;1.40;1.30;;;19.20;63.60;;;;;;4975426;28;44442;-63
2022/11/06 02:21:14;;;;;;;1.75;1.50;;;19.20;63.60;;;;;;4972197;28;43693;-63
2022/11/06 02:23:56;;;;;;;1.60;1.50;;;19.20;63.60;;;;;;4976683;28;44401;-62
2022/11/06 02:26:29;;;;;;;1.67;1.58;;;19.20;64.20;;;;;;4973303;28;43491;-63
2022/11/06 02:29:06;;;;;;;1.73;1.63;;;19.20;64.20;;;;;;4974259;28;43591;-63
2022/11/06 02:31:37;;;;;;;1.52;1.42;;;19.20;63.60;;;;;;4973441;28;43557;-63
2022/11/06 02:34:08;;;;;;;;;;;19.20;63.60;;;;;;4972631;28;44968;-63
2022/11/06 02:36:42;;;;;;;1.98;1.88;;;19.20;63.60;;;;;;4976744;28;43476;-63
2022/11/06 02:39:15;;;;;;;1.73;1.60;;;19.20;63.60;;;;;;4980132;28;43484;-63
2022/11/06 02:41:45;;;;;;;1.63;1.30;;;19.20;63.60;;;;;;4981163;28;43510;-63
2022/11/06 02:44:19;;;;;;;1.98;1.73;;;19.20;63.60;;;;;;4977365;28;43795;-63
2022/11/06 02:46:51;;;;;;;1.65;1.55;;;19.10;63.50;;;;;;4976207;28;43714;-63
2022/11/06 02:49:38;;;;;;;1.60;1.25;;;19.20;63.60;;;;;;4974299;28;43505;-63
2022/11/06 02:52:46;;;;;;;1.83;1.58;;;19.20;63.60;;;;;;4977427;28;43478;-63
2022/11/06 02:55:18;;;;;;;1.60;1.50;;;19.10;63.50;;;;;;4977553;28;44985;-63
2022/11/06 02:57:51;;;;;;;1.63;1.52;;;19.10;63.60;;;;;;4976635;28;43412;-63
2022/11/06 03:00:21;;;;;;;1.48;1.33;;;19.10;63.50;;;;;;4976843;28;43408;-63
2022/11/06 03:02:48;;;;;;;1.60;1.50;;;19.10;63.60;;;;;;4976481;28;43449;-63
2022/11/06 03:05:22;;;;;;;1.75;1.52;;;19.10;63.60;;;;;;4980359;28;44984;-62
2022/11/06 03:07:56;;;;;;;1.50;1.40;;;19.10;63.50;;;;;;4977224;28;43824;-63
2022/11/06 03:10:28;;;;;;;1.88;1.75;;;19.10;63.60;;;;;;4974406;28;43407;-63
2022/11/06 03:13:04;;;;;;;1.90;1.50;;;19.10;63.60;;;;;;4974131;28;43961;-63
2022/11/06 03:16:08;;;;;;;1.48;1.38;;;19.10;63.60;;;;;;4976609;28;44871;-63
2022/11/06 03:18:48;;;;;;;1.40;1.30;;;19.10;63.60;;;;;;4950177;28;43807;-63
2022/11/06 03:21:31;;;;;;;1.50;1.40;;;19.10;63.60;;;;;;4972209;28;43430;-63
2022/11/06 03:24:21;;;;;;;1.20;1.10;;;19.10;63.60;;;;;;4973050;28;43589;-63
2022/11/06 03:26:55;;;;;;;1.67;1.50;;;19.10;63.60;;;;;;4975045;28;44958;-63
2022/11/06 03:29:33;;;;;;;1.58;1.45;;;19.10;63.60;;;;;;4981671;28;43450;-63
2022/11/06 03:32:13;;;;;;;1.50;1.40;;;19.10;63.60;;;;;;4972038;28;43437;-63
2022/11/06 03:34:48;;;;;;;1.75;1.50;;;19.00;63.60;;;;;;4977520;28;43432;-63
2022/11/06 03:37:24;;;;;;;1.88;1.40;;;19.10;63.70;;;;;;4981884;28;43778;-63
2022/11/06 03:39:56;;;;;;;1.50;1.40;;;19.00;63.60;;;;;;4973803;28;43464;-63
2022/11/06 03:42:27;;;;;;;1.60;1.50;;;19.00;63.60;;;;;;4972950;28;43356;-63
2022/11/06 03:45:05;;;;;;;1.30;1.20;;;19.00;63.60;;;;;;4975576;28;43487;-62
2022/11/06 03:47:39;;;;;;;1.70;1.60;;;19.10;63.70;;;;;;4972564;28;43800;-63
2022/11/06 03:50:19;;;;;;;1.42;1.33;;;19.00;63.60;;;;;;4973381;28;43712;-63
2022/11/06 03:52:57;;;;;;;1.52;1.42;;;19.00;63.60;;;;;;4971899;28;43401;-63
2022/11/06 03:55:31;;;;;;;1.58;1.48;;;19.00;63.60;;;;;;4979029;28;43544;-63
2022/11/06 03:58:06;;;;;;;1.42;1.33;;;19.00;63.60;;;;;;4975108;28;43798;-63
2022/11/06 04:00:37;;;;;;;1.55;1.40;;;19.00;63.60;;;;;;4970442;28;43499;-63
2022/11/06 04:03:13;;;;;;;1.50;1.40;;;19.00;63.70;;;;;;4982302;28;43412;-63
2022/11/06 04:06:01;;;;;;;1.50;1.40;;;19.00;63.70;;;;;;4979174;28;43891;-63
2022/11/06 04:14:09;;;;;;;1.70;1.60;;;18.90;63.70;;;;;;4974470;28;43451;-63
2022/11/06 04:16:48;;;;;;;1.70;1.60;;;19.00;63.80;;;;;;4978875;28;43463;-63
2022/11/06 04:19:19;;;;;;;1.33;1.23;;;19.00;63.80;;;;;;4973644;28;44077;-63
2022/11/06 04:21:59;;;;;;;2.22;1.40;;;18.90;63.70;;;;;;4972086;28;43428;-63
2022/11/06 04:27:50;;;;;;;1.38;1.30;;;19.00;63.70;;;;;;4976470;28;43482;-63
2022/11/06 04:30:18;;;;;;;1.48;1.38;;;18.90;63.70;;;;;;4972376;28;44061;-63
2022/11/06 04:33:01;;;;;;;1.40;1.30;;;18.90;63.80;;;;;;4975046;28;43467;-63
2022/11/06 04:35:59;;;;;;;2.05;1.40;;;19.00;63.70;;;;;;4971649;28;43447;-63
2022/11/06 04:38:50;;;;;;;1.58;1.48;;;18.90;63.70;;;;;;4974333;28;43715;-63
2022/11/06 04:41:33;;;;;;;1.20;1.20;;;18.90;63.80;;;;;;4976153;28;44849;-63
2022/11/06 04:44:37;;;;;;;1.50;1.40;;;18.90;63.70;;;;;;4972277;28;43660;-63
2022/11/06 04:47:11;;;;;;;1.52;1.42;;;18.90;63.80;;;;;;4967615;28;43547;-63
2022/11/06 04:49:42;;;;;;;1.42;1.33;;;18.90;63.80;;;;;;4978107;28;43480;-63
2022/11/06 04:52:15;;;;;;;;;;;18.90;63.80;;;;;;4979360;28;44743;-63
2022/11/06 04:54:45;;;;;;;1.45;1.30;;;18.90;63.80;;;;;;4974822;28;43495;-63
2022/11/06 04:57:12;;;;;;;1.73;1.40;;;18.80;63.80;;;;;;4975519;28;43421;-63
2022/11/06 04:59:40;;;;;;;1.50;1.40;;;18.90;63.90;;;;;;4979135;28;43490;-63
2022/11/06 05:02:07;;;;;;;1.60;1.50;;;18.80;63.90;;;;;;4978393;28;44838;-65
2022/11/06 05:04:35;;;;;;;1.40;1.27;;;18.80;63.80;;;;;;4975239;28;44044;-63
2022/11/06 05:07:02;;;;;;;1.50;1.15;;;18.80;63.80;;;;;;4975162;28;43442;-63
2022/11/06 05:09:29;;;;;;;1.40;1.30;;;18.80;63.80;;;;;;4978489;28;43570;-63
2022/11/06 05:11:57;;;;;;;1.40;1.30;;;18.80;63.80;;;;;;4978896;28;43537;-63
2022/11/06 05:14:24;;;;;;;1.40;1.30;;;18.80;63.80;;;;;;4975489;28;44089;-63
2022/11/06 05:16:52;;;;;;;1.40;1.30;;;18.90;63.80;;;;;;4980003;28;43390;-63
2022/11/06 05:19:19;;;;;;;1.92;1.60;;;18.80;63.80;;;;;;4978846;28;43433;-63
2022/11/06 05:24:32;;;;;;;1.75;1.65;;;18.80;63.80;;;;;;4978723;28;43545;-63
2022/11/06 05:27:00;;;;;;;1.58;1.45;;;18.80;63.80;;;;;;4978086;28;43427;-63
2022/11/06 05:29:27;;;;;;;1.42;1.33;;;18.80;63.80;;;;;;4978728;28;43479;-63
2022/11/06 05:31:54;;;;;;;1.50;1.40;;;18.80;63.80;;;;;;4975583;28;44629;-63
2022/11/06 05:34:22;;;;;;;2.13;1.30;;;18.80;63.90;;;;;;4979252;28;43781;-63
2022/11/06 05:36:49;;;;;;;1.35;1.20;;;18.80;63.80;;;;;;4978719;28;43451;-63
2022/11/06 05:39:17;;;;;;;1.30;1.20;;;18.80;63.90;;;;;;4978001;28;43422;-64
2022/11/06 05:41:44;;;;;;;1.48;1.23;;;18.80;63.90;;;;;;4976452;28;44280;-63
2022/11/06 05:44:12;;;;;;;1.08;1.08;;;18.80;63.90;;;;;;4974500;28;43956;-63
2022/11/06 05:46:39;;;;;;;1.73;1.50;;;18.80;63.90;;;;;;4977646;28;43424;-63
2022/11/06 05:49:15;;;;;;;1.40;1.30;;;18.70;63.80;;;;;;4978433;28;43523;-63
2022/11/06 05:51:43;;;;;;;1.50;1.40;;;18.80;63.90;;;;;;4974950;28;44959;-63
2022/11/06 05:54:10;;;;;;;1.30;1.20;;;18.70;63.90;;;;;;4980509;28;43790;-64
2022/11/06 05:56:38;;;;;;;1.35;1.25;;;18.80;63.90;;;;;;4977919;28;43558;-63
2022/11/06 05:59:05;;;;;;;1.40;1.30;;;18.80;63.90;;;;;;4979608;28;43598;-63
2022/11/06 06:01:33;;;;;;;1.23;1.13;;;18.80;63.90;;;;;;4963760;28;44711;-63
2022/11/06 06:04:00;;;;;;;2.05;1.40;;;18.70;64.20;;;;;;4975491;28;44031;-63
2022/11/06 06:06:28;;;;;;;1.05;1.05;;;18.70;63.90;;;;;;4981588;28;43456;-63
2022/11/06 06:08:55;;;;;;;1.30;1.20;;;18.80;64.00;;;;;;4976122;28;43590;-63
2022/11/06 06:11:23;;;;;;;1.73;1.33;;;18.80;63.90;;;;;;4979321;28;44037;-63
2022/11/06 06:13:50;;;;;;;1.60;1.40;;;18.80;64.00;;;;;;4976239;28;43481;-63
2022/11/06 06:16:18;;;;;;;1.40;1.30;;;18.80;63.90;;;;;;4983361;28;43514;-63
2022/11/06 06:18:48;;;;;;;1.60;1.40;;;18.70;63.80;;;;;;4975584;28;43486;-63
2022/11/06 06:21:16;;;;;;;1.95;1.65;;;18.80;63.90;;;;;;4973639;28;44776;-63
2022/11/06 06:23:44;;;;;;;1.60;1.27;;;18.80;64.00;;;;;;4979152;28;43803;-63
2022/11/06 06:26:11;;;;;;;1.42;1.33;;;18.70;63.90;;;;;;4978283;28;43541;-63
2022/11/06 06:28:38;;;;;;;1.17;1.08;;;18.70;63.90;;;;;;4977091;28;43467;-63
2022/11/06 06:31:07;;;;;;;1.45;1.35;;;18.70;63.90;;;;;;4974661;28;44953;-63
2022/11/06 06:33:35;;;;;;;1.90;1.40;;;18.70;63.90;;;;;;4980685;28;43504;-63
2022/11/06 06:36:06;;;;;;;1.50;1.35;;;18.70;63.90;;;;;;4975705;28;43499;-64
2022/11/06 06:38:33;;;;;;;;;;;18.70;64.10;;;;;;4977971;28;43541;-63
2022/11/06 06:41:07;;;;;;;1.50;1.40;;;18.70;64.20;;;;;;4980628;28;45514;-64
2022/11/06 06:43:35;;;;;;;1.52;1.38;;;18.70;64.10;;;;;;4983114;28;43516;-63
2022/11/06 06:46:05;;;;;;;1.40;1.30;;;18.70;64.20;;;;;;4978400;28;43439;-64
2022/11/06 06:48:33;;;;;;;1.65;1.30;;;18.70;64.10;;;;;;4973240;28;43537;-64
2022/11/06 06:51:02;;;;;;;1.17;1.13;;;18.70;64.10;;;;;;4975790;28;44045;-64
2022/11/06 06:53:30;;;;;;;1.42;1.33;;;18.70;64.10;;;;;;4982949;28;43461;-63
2022/11/06 06:55:59;;;;;;;1.50;1.40;;;18.70;64.10;;;;;;4976682;28;43469;-64
2022/11/06 06:58:27;;;;;;;1.40;1.30;;;18.70;64.10;;;;;;4975725;28;43472;-63
2022/11/06 07:00:59;;;;;;;1.88;1.05;;;18.70;64.00;;;;;;4977653;28;43873;-64
2022/11/06 07:03:27;;;;;;;1.40;1.30;;;18.70;64.10;;;;;;4982757;28;43946;-64
2022/11/06 07:05:59;;;;;;;1.30;1.20;;;18.70;64.10;;;;;;4982522;28;43455;-63
2022/11/06 07:08:27;;;;;;;1.98;1.45;;;18.70;64.10;;;;;;4973913;28;43492;-64
2022/11/06 07:11:06;;;;;;;1.33;1.23;;;18.70;64.10;;;;;;4978821;28;45245;-64
2022/11/06 07:13:34;;;;;;;1.88;1.30;;;18.70;64.10;;;;;;4981889;28;43465;-64
2022/11/06 07:16:08;;;;;;;1.50;1.40;;;18.60;64.10;;;;;;4979145;28;43471;-64
2022/11/06 07:18:37;;;;;;;1.50;1.40;;;18.60;64.10;;;;;;4971992;28;43525;-64
2022/11/06 07:21:09;;;;;;;1.23;1.13;;;18.70;64.10;;;;;;4977430;28;44971;-64
2022/11/06 07:23:38;;;;;;;1.50;1.40;;;18.70;64.10;;;;;;4978965;28;43555;-63
2022/11/06 07:26:05;;;;;;;1.52;1.30;;;18.60;64.00;;;;;;4981758;28;43463;-63
2022/11/06 07:28:33;;;;;;;1.40;1.25;;;18.60;64.00;;;;;;4981361;28;43590;-62
2022/11/06 07:31:03;;;;;;;1.27;1.17;;;18.60;64.10;;;;;;4980210;28;44192;-62
2022/11/06 07:33:32;;;;;;;1.20;1.13;;;18.60;64.20;;;;;;4980302;28;43430;-62
2022/11/06 07:36:11;;;;;;;1.20;1.10;;;18.60;64.10;;;;;;4978298;28;43387;-63
2022/11/06 07:38:40;;;;;;;1.30;1.20;;;18.60;64.20;;;;;;4975853;28;43484;-62
2022/11/06 07:41:11;;;;;;;1.65;1.50;;;18.60;64.20;;;;;;4982633;28;44773;-62
2022/11/06 07:43:38;;;;;;;3.10;1.17;;;18.60;64.20;;;;;;4981911;28;43493;-62
2022/11/06 07:46:08;;;;;;;2.00;1.10;;;18.60;64.20;;;;;;4981592;28;43325;-62
2022/11/06 07:48:35;;;;;;;2.00;1.40;;;18.60;64.20;;;;;;4981033;28;43617;-63
2022/11/06 07:51:05;;;;;;;1.48;1.30;;;18.60;64.20;;;;;;4980796;28;43967;-62
2022/11/06 07:53:33;;;;;;;1.25;1.02;;;18.60;64.20;;;;;;4978724;28;43449;-62
2022/11/06 07:56:01;;;;;;;1.67;1.20;;;18.60;64.30;;;;;;4980559;28;43417;-62
2022/11/06 07:58:28;;;;;;;1.52;1.13;;;18.60;64.30;;;;;;4979093;28;43650;-62
2022/11/06 08:00:58;;;;;;;4.07;1.40;;;18.60;64.30;;;;;;4981027;28;43894;-61
2022/11/06 08:03:28;;;;;;;2.25;1.23;;;18.60;64.60;;;;;;4982689;28;43734;-61
2022/11/06 08:05:57;;;;;;;1.52;1.38;;;18.60;64.50;;;;;;4986623;28;43439;-61
2022/11/06 08:08:27;;;;;;;1.05;1.02;;;18.60;64.40;;;;;;4976193;28;43476;-61
2022/11/06 08:10:54;;;;;;;1.60;1.00;;;18.70;64.30;;;;;;4981187;28;44697;-61
2022/11/06 08:13:21;;;;;;;0.85;0.85;;;18.60;64.10;;;;;;4973785;28;44134;-61
2022/11/06 08:15:49;;;;;;;1.30;1.20;;;18.70;64.20;;;;;;4973553;28;43440;-60
2022/11/06 08:18:16;;;;;;;1.63;1.17;;;18.70;64.20;;;;;;4979748;28;43491;-61
2022/11/06 08:20:44;;;;;;;1.30;1.17;;;18.70;64.10;;;;;;4982146;28;45001;-61
2022/11/06 08:23:12;;;;;;;1.23;1.13;;;18.70;64.10;;;;;;4972636;28;43826;-61
2022/11/06 08:25:40;;;;;;;1.25;1.10;;;18.70;64.10;;;;;;4976939;28;43435;-60
2022/11/06 08:28:08;;;;;;;1.85;1.42;;;18.70;64.70;;;;;;4979788;28;43661;-62
2022/11/06 08:30:36;;;;;;;1.67;1.30;;;18.60;64.20;;;;;;4981981;28;44803;-63
2022/11/06 08:33:06;;;;;;;1.45;1.35;;;18.60;64.30;;;;;;4972299;28;44111;-63
2022/11/06 08:35:33;;;;;;;2.40;2.20;;;18.60;64.30;;;;;;4974130;28;43408;-61
2022/11/06 08:38:01;;;;;;;2.22;2.00;;;18.70;64.40;;;;;;4980851;28;43432;-62
2022/11/06 08:40:29;;;;;;;1.75;1.63;;;18.70;64.30;;;;;;4974298;28;43856;-61
2022/11/06 08:42:59;;;;;;;2.95;2.00;;;18.80;64.20;;;;;;4974951;28;44056;-63
2022/11/06 08:45:27;;;;;;;3.92;3.00;;;18.70;64.20;;;;;;4977831;28;43480;-60
2022/11/06 08:47:54;;;;;;;3.00;2.80;;;18.70;64.40;;;;;;4980663;28;43551;-63
2022/11/06 08:50:22;;;;;;;4.68;2.90;;;18.70;64.40;;;;;;4972153;28;44968;-63
2022/11/06 08:52:49;;;;;;;4.55;2.80;;;18.70;64.40;;;;;;4977752;28;43456;-64
2022/11/06 08:55:16;;;;;;;2.67;2.47;;;18.80;64.70;;;;;;4976135;28;43372;-63
2022/11/06 08:57:44;;;;;;;4.80;2.50;;;18.90;64.30;;;;;;4981314;28;43514;-63
2022/11/06 09:00:12;;;;;;;2.70;2.50;;;19.00;64.10;;;;;;4972261;28;43887;-62
2022/11/06 09:02:40;;;;;;;2.42;2.25;;;19.10;64.00;;;;;;4974528;28;43399;-62
2022/11/06 09:05:07;;;;;;;2.97;2.45;;;19.30;63.80;;;;;;4979834;28;43574;-61
2022/11/06 09:07:35;;;;;;;2.47;2.28;;;19.40;63.70;;;;;;4977035;28;43440;-62
2022/11/06 09:10:03;;;;;;;2.60;2.25;;;19.60;63.60;;;;;;4980161;28;44073;-62
2022/11/06 09:12:31;;;;;;;2.28;2.10;;;19.70;63.40;;;;;;4975756;28;43401;-62
2022/11/06 09:14:58;;;;;;;1.83;1.73;;;19.80;63.30;;;;;;4981261;28;43456;-61
2022/11/06 09:17:25;;;;;;;3.10;1.70;;;19.90;63.10;;;;;;4979104;28;43746;-63
2022/11/06 09:19:53;;;;;;;2.10;1.90;;;20.00;62.90;;;;;;4979258;28;44689;-62
2022/11/06 09:22:20;;;;;;;2.30;2.10;;;20.10;62.60;;;;;;4976455;28;43974;-63
2022/11/06 09:24:48;;;;;;;3.30;1.92;;;20.30;62.50;;;;;;4978308;28;43391;-64
2022/11/06 09:27:30;;;;;;;3.40;1.73;;;20.40;62.20;;;;;;4976158;28;43603;-63
2022/11/06 09:29:58;;;;;;;1.92;1.73;;;20.40;62.30;;;;;;4975404;28;45049;-63
2022/11/06 09:32:25;;;;;;;2.97;1.80;;;20.50;62.00;;;;;;4977829;28;43815;-63
2022/11/06 09:34:52;;;;;;;1.80;1.60;;;20.50;62.30;;;;;;4982052;28;43580;-62
2022/11/06 09:37:20;;;;;;;2.72;1.52;;;20.60;62.00;;;;;;4983849;28;43417;-63
2022/11/06 09:39:47;;;;;;;1.55;1.45;;;20.70;61.80;;;;;;4982726;28;44053;-62
2022/11/06 09:42:18;;;;;;;2.38;1.70;;;20.80;61.80;;;;;;4983510;28;43422;-65
2022/11/06 09:45:16;;;;;;;2.65;1.90;;;20.90;61.60;;;;;;4982595;28;43476;-63
2022/11/06 09:47:49;;;;;;;2.50;1.42;;;21.00;61.40;;;;;;4979485;28;43528;-59
2022/11/06 09:50:21;;;;;;;2.90;1.40;;;21.10;61.80;;;;;;4981560;28;44031;-64
2022/11/06 09:52:55;;;;;;;1.58;1.40;;;21.20;61.30;;;;;;4982877;28;43713;-60
2022/11/06 09:55:40;;;;;;;1.90;1.70;;;21.20;61.30;;;;;;4976883;28;43539;-60
2022/11/06 09:58:25;;;;;;;1.40;1.30;;;21.30;61.30;;;;;;4984859;28;43580;-63
2022/11/06 10:00:53;;;;;;;1.38;1.30;;;21.40;61.00;;;;;;4981246;28;45240;-64
2022/11/06 10:03:25;;;;;;;2.38;1.30;;;21.40;60.80;;;;;;4986903;28;43730;-63
2022/11/06 10:05:53;;;;;;;2.25;1.35;;;21.40;60.60;;;;;;4976791;28;43557;-64
2022/11/06 10:08:29;;;;;;;1.83;1.50;;;21.50;60.60;;;;;;4980701;28;43543;-63
2022/11/06 10:11:06;;;;;;;2.47;1.30;;;21.50;60.50;;;;;;4981180;28;45136;-63
2022/11/06 10:13:53;;;;;;;2.55;1.10;;;21.60;60.50;;;;;;4978685;28;44005;-64
2022/11/06 10:16:41;;;;;;;1.75;1.35;;;21.60;60.40;;;;;;4977684;28;43517;-64
2022/11/06 10:19:20;;;;;;;1.20;1.20;;;21.70;60.30;;;;;;4975861;28;43519;-65
2022/11/06 10:22:07;;;;;;;1.33;1.17;;;21.70;60.50;;;;;;4981869;28;43785;-64
2022/11/06 10:24:50;;;;;;;1.80;1.08;;;21.80;60.60;;;;;;4979184;28;43471;-63
2022/11/06 10:27:26;;;;;;;2.22;1.23;;;21.80;60.50;;;;;;4979598;28;43662;-62
2022/11/06 10:30:07;;;;;;;1.77;1.00;;;21.80;60.40;;;;;;4981029;28;43547;-63
2022/11/06 10:32:50;;;;;;;1.20;1.10;;;21.80;60.30;;;;;;4979828;28;43796;-62
2022/11/06 10:35:32;;;;;;;1.25;1.10;;;21.80;60.10;;;;;;4977850;28;43522;-62
2022/11/06 10:38:13;;;;;;;1.05;0.95;;;21.80;59.90;;;;;;4983278;28;43848;-62
2022/11/06 10:40:47;;;;;;;2.00;1.10;;;21.80;60.50;;;;;;4980033;28;43631;-62
2022/11/06 10:57:00;;;;;;;1.80;1.13;;;21.50;60.50;;;;;;4954953;28;43493;-62
2022/11/06 10:59:28;;;;;;;1.70;1.20;;;21.50;60.60;;;;;;4959574;28;44724;-63
2022/11/06 11:01:55;;;;;;;2.53;1.33;;;21.50;60.70;;;;;;4959880;28;43642;-61
2022/11/06 11:04:23;;;;;;;1.48;1.15;;;21.50;60.60;;;;;;4955973;28;43590;-62
2022/11/06 11:06:50;;;;;;;1.60;0.90;;;21.40;60.80;;;;;;4956669;28;43552;-62
2022/11/06 11:09:32;;;;;;;1.70;1.10;;;21.40;61.00;;;;;;4955198;28;43777;-62
2022/11/06 11:12:00;;;;;;;1.48;0.95;;;21.40;60.70;;;;;;4958905;28;43594;-62
2022/11/06 11:14:30;;;;;;;1.35;1.10;;;21.30;60.80;;;;;;4959328;28;43447;-62
2022/11/06 11:16:59;;;;;;;1.38;1.10;;;21.30;60.80;;;;;;4968979;28;43573;-62
2022/11/06 11:19:40;;;;;;;1.58;1.10;;;21.30;61.30;;;;;;4980537;28;43590;-62
2022/11/06 11:22:19;;;;;;;1.88;1.00;;;21.30;61.10;;;;;;4981498;28;43972;-62
2022/11/06 11:25:03;;;;;;;1.85;1.30;;;21.20;61.10;;;;;;4980417;28;43388;-62
2022/11/06 11:27:36;;;;;;;3.03;1.25;;;21.20;61.10;;;;;;4979889;28;43449;-62
2022/11/06 11:30:05;;;;;;;1.75;1.00;;;21.20;61.20;;;;;;4981428;28;44120;-61
2022/11/06 11:32:33;;;;;;;2.50;1.27;;;21.20;61.30;;;;;;4964983;28;43371;-62
2022/11/06 11:35:09;;;;;;;2.47;1.13;;;21.10;61.30;;;;;;4982298;28;43500;-62
2022/11/06 11:37:37;;;;;;;2.70;1.50;;;21.10;61.30;;;;;;4980000;28;43609;-62
2022/11/06 11:40:34;;;;;;;1.83;1.30;;;21.10;61.40;;;;;;4981835;28;44090;-63
2022/11/06 11:43:35;;;;;;;2.40;1.40;;;21.10;61.50;;;;;;4962413;28;43467;-62
2022/11/06 11:46:07;;;;;;;1.73;1.40;;;21.00;61.50;;;;;;4935633;28;44052;-62
2022/11/06 11:48:48;;;;;;;2.45;1.40;;;21.00;61.60;;;;;;4977417;28;43407;-62
2022/11/06 11:51:34;;;;;;;2.47;1.45;;;21.00;61.60;;;;;;4979043;28;43820;-62
2022/11/06 11:54:14;;;;;;;1.98;1.30;;;21.00;61.60;;;;;;4979511;28;43490;-62
2022/11/06 11:56:52;;;;;;;2.40;1.73;;;21.00;61.70;;;;;;4975447;28;43409;-62
2022/11/06 12:00:01;;;;;;;2.25;1.20;;;20.90;61.80;;;;;;4976049;28;43624;-62
2022/11/06 12:02:41;;;;;;;2.50;1.48;;;20.90;61.90;;;;;;4974984;28;43842;-62
2022/11/06 12:05:15;;;;;;;2.58;1.60;;;20.80;61.80;;;;;;4977476;28;43497;-62
2022/11/06 12:07:47;;;;;;;1.50;1.40;;;20.80;62.00;;;;;;4965649;28;43503;-62
2022/11/06 12:10:28;;;;;;;2.20;1.23;;;20.80;62.10;;;;;;4983655;28;43545;-62
2022/11/06 12:12:57;;;;;;;1.77;1.33;;;20.80;62.00;;;;;;4963194;28;45108;-63
2022/11/06 12:15:43;;;;;;;2.15;1.30;;;20.80;62.10;;;;;;4979014;28;43753;-62
2022/11/06 12:18:18;;;;;;;2.20;1.35;;;20.70;62.20;;;;;;4978723;28;43469;-62
2022/11/06 12:20:56;;;;;;;2.33;1.50;;;20.70;62.30;;;;;;4963650;28;43595;-62
2022/11/06 12:23:29;;;;;;;1.52;1.30;;;20.80;62.40;;;;;;4979921;28;45303;-63
2022/11/06 12:26:28;;;;;;;3.10;1.58;;;20.80;62.40;;;;;;4981619;28;43561;-63
2022/11/06 12:29:03;;;;;;;1.63;1.30;;;20.80;62.30;;;;;;4979928;28;43501;-63
2022/11/06 12:31:31;;;;;;;2.42;1.50;;;20.70;62.40;;;;;;4979695;28;43477;-63
2022/11/06 12:34:02;;;;;;;2.00;1.40;;;20.70;62.30;;;;;;4979923;28;43773;-63
2022/11/06 12:36:38;;;;;;;1.70;1.20;;;20.70;62.40;;;;;;4976076;28;44046;-64
2022/11/06 12:39:15;;;;;;;1.33;1.23;;;20.70;63.50;;;;;;4979682;28;43452;-62
2022/11/06 12:41:47;;;;;;;2.15;1.45;;;20.70;62.70;;;;;;4978535;28;43480;-60
2022/11/06 12:44:16;;;;;;;2.05;1.45;;;20.60;63.60;;;;;;4977358;28;44059;-63
2022/11/06 12:46:46;;;;;;;1.40;1.30;;;20.60;62.80;;;;;;4977859;28;43927;-63
2022/11/06 12:49:13;;;;;;;1.73;1.53;;;20.60;63.00;;;;;;4982585;28;44043;-62
2022/11/06 12:52:07;;;;;;;1.55;1.33;;;20.60;62.80;;;;;;4980751;28;43571;-62
2022/11/06 12:54:56;;;;;;;2.35;1.45;;;20.50;62.70;;;;;;4976586;28;43853;-62
2022/11/06 12:57:24;;;;;;;2.60;1.42;;;20.50;62.70;;;;;;4979005;28;43846;-63
2022/11/06 13:00:30;;;;;;;1.80;1.20;;;20.50;62.80;;;;;;4983367;28;43484;-62
2022/11/06 13:03:27;;;;;;;1.58;1.17;;;20.40;62.90;;;;;;4881671;29;43611;-62
2022/11/06 13:06:20;;;;;;;2.42;1.77;;;20.40;62.80;;;;;;4098782;28;10001124;-62
2022/11/06 13:09:00;;;;;;;1.65;1.30;;;20.40;62.90;;;;;;4977253;28;43586;-62
2022/11/06 13:11:49;;;;;;;2.15;1.40;;;20.40;62.90;;;;;;4981569;28;43745;-63
2022/11/06 13:14:30;;;;;;;2.40;1.23;;;20.30;63.00;;;;;;4106021;28;10000301;-64
2022/11/06 13:17:24;;;;;;;2.97;1.27;;;20.30;63.00;;;;;;4980617;28;43843;-63
2022/11/06 13:19:58;;;;;;;2.92;1.30;;;20.30;63.20;;;;;;4985102;28;43875;-63
2022/11/06 13:22:32;;;;;;;2.47;1.52;;;20.30;63.10;;;;;;4981750;28;43442;-63
2022/11/06 13:25:26;;;;;;;1.02;0.98;;;20.30;63.20;;;;;;4980854;28;43588;-63
2022/11/06 13:28:20;;;;;;;1.67;1.05;;;20.20;63.30;;;;;;4979820;28;44543;-63
2022/11/06 13:30:47;;;;;;;1.85;1.30;;;20.20;63.20;;;;;;4967409;28;43844;-63
2022/11/06 13:33:38;;;;;;;1.42;1.30;;;20.20;63.30;;;;;;4962689;28;43406;-67
2022/11/06 13:36:06;;;;;;;1.38;1.15;;;20.10;63.30;;;;;;4983405;28;43506;-63
2022/11/06 13:38:39;;;;;;;1.20;1.10;;;20.10;63.30;;;;;;4982669;28;44826;-62
2022/11/06 13:41:20;;;;;;;2.33;1.40;;;20.10;63.30;;;;;;4981695;28;43966;-62
2022/11/06 13:43:53;;;;;;;2.72;1.25;;;20.10;63.40;;;;;;4981274;28;43518;-62
2022/11/06 13:46:34;;;;;;;1.30;1.20;;;20.00;63.30;;;;;;4984231;28;44068;-63